createdAt,value
2023-05-02T00:02:09.683Z,33.07
2023-05-02T00:04:37.779Z,31.53
2023-05-02T00:07:06.327Z,33.00
2023-05-02T00:09:34.193Z,30.90
2023-05-02T00:12:03.945Z,31.87
2023-05-02T00:14:31.856Z,31.80
2023-05-02T00:16:59.910Z,33.00
2023-05-02T00:19:27.926Z,33.03
2023-05-02T00:21:55.821Z,33.23
2023-05-02T00:24:23.730Z,33.10
2023-05-02T00:26:51.666Z,35.07
2023-05-02T00:29:20.990Z,33.53
2023-05-02T00:31:48.914Z,29.80
2023-05-02T00:34:16.771Z,28.53
2023-05-02T00:36:44.728Z,24.67
2023-05-02T00:39:12.632Z,25.00
2023-05-02T00:41:40.533Z,20.80
2023-05-02T00:44:08.503Z,23.37
2023-05-02T00:46:37.804Z,20.50
2023-05-02T00:49:05.772Z,21.83
2023-05-02T00:51:34.508Z,20.97
2023-05-02T00:54:02.624Z,21.77
2023-05-02T00:56:30.515Z,20.50
2023-05-02T00:58:58.869Z,20.17
2023-05-02T01:01:44.196Z,19.83
2023-05-02T01:04:23.377Z,20.80
2023-05-02T01:07:16.344Z,19.87
2023-05-02T01:09:58.859Z,19.23
2023-05-02T01:12:32.355Z,15.70
2023-05-02T01:15:03.959Z,18.23
2023-05-02T01:17:33.831Z,16.83
2023-05-02T01:20:07.059Z,17.37
2023-05-02T01:22:38.457Z,14.07
2023-05-02T01:25:15.494Z,14.70
2023-05-02T01:27:58.946Z,14.80
2023-05-02T01:30:33.141Z,14.40
2023-05-02T01:33:03.252Z,13.73
2023-05-02T01:35:33.784Z,13.33
2023-05-02T01:38:03.282Z,12.80
2023-05-02T01:40:31.718Z,12.80
2023-05-02T01:43:04.280Z,12.70
2023-05-02T01:45:34.996Z,12.47
2023-05-02T01:48:06.339Z,13.07
2023-05-02T01:50:34.970Z,13.93
2023-05-02T01:53:05.856Z,12.93
2023-05-02T01:55:36.917Z,13.30
2023-05-02T01:58:06.910Z,12.07
2023-05-02T02:00:38.836Z,10.90
2023-05-02T02:03:08.336Z,11.73
2023-05-02T02:05:37.455Z,12.07
2023-05-02T02:08:06.000Z,11.17
2023-05-02T02:10:41.522Z,10.90
2023-05-02T02:13:18.129Z,10.77
2023-05-02T02:15:50.211Z,10.50
2023-05-02T02:18:22.627Z,9.50
2023-05-02T02:20:51.760Z,10.77
2023-05-02T02:23:22.767Z,9.37
2023-05-02T02:25:53.280Z,10.20
2023-05-02T02:28:21.144Z,10.23
2023-05-02T02:30:51.211Z,9.90
2023-05-02T02:33:20.543Z,10.80
2023-05-02T02:35:58.392Z,11.00
2023-05-02T02:38:33.449Z,10.73
2023-05-02T02:41:07.136Z,11.70
2023-05-02T02:43:45.167Z,10.83
2023-05-02T02:46:29.341Z,9.77
2023-05-02T02:49:06.717Z,10.37
2023-05-02T02:51:41.153Z,11.00
2023-05-02T02:54:26.427Z,12.10
2023-05-02T02:57:14.945Z,11.20
2023-05-02T02:59:52.210Z,10.50
2023-05-02T03:02:27.306Z,10.77
2023-05-02T03:04:56.669Z,11.23
2023-05-02T03:07:24.816Z,11.57
2023-05-02T03:09:52.874Z,11.33
2023-05-02T03:12:23.858Z,10.47
2023-05-02T03:14:52.233Z,11.27
2023-05-02T03:17:24.261Z,11.13
2023-05-02T03:19:53.592Z,11.83
2023-05-02T03:22:21.593Z,10.83
2023-05-02T03:24:49.533Z,10.40
2023-05-02T03:27:17.509Z,10.83
2023-05-02T03:29:45.321Z,10.30
2023-05-02T03:32:13.993Z,11.10
2023-05-02T03:34:45.570Z,11.10
2023-05-02T03:37:13.508Z,11.77
2023-05-02T03:39:41.481Z,9.90
2023-05-02T03:42:09.383Z,10.30
2023-05-02T03:44:37.303Z,10.00
2023-05-02T03:47:05.406Z,10.07
2023-05-02T03:49:38.804Z,9.90
2023-05-02T03:52:09.498Z,9.67
2023-05-02T03:54:37.955Z,9.20
2023-05-02T03:57:06.203Z,9.00
2023-05-02T03:59:35.273Z,9.73
2023-05-02T04:02:11.249Z,9.13
2023-05-02T04:04:43.438Z,8.90
2023-05-02T04:07:18.278Z,8.60
2023-05-02T04:09:48.747Z,9.77
2023-05-02T04:12:17.076Z,9.80
2023-05-02T04:14:48.631Z,9.23
2023-05-02T04:17:16.964Z,8.80
2023-05-02T04:19:48.770Z,8.57
2023-05-02T04:22:18.494Z,9.73
2023-05-02T04:24:51.868Z,9.80
2023-05-02T04:27:20.013Z,8.90
2023-05-02T04:29:49.621Z,7.97
2023-05-02T04:32:18.784Z,8.00
2023-05-02T04:34:47.737Z,6.90
2023-05-02T04:37:17.970Z,5.60
2023-05-02T04:39:47.158Z,5.87
2023-05-02T04:42:19.255Z,6.63
2023-05-02T04:44:55.580Z,5.87
2023-05-02T04:47:23.586Z,5.40
2023-05-02T04:49:51.546Z,5.33
2023-05-02T04:52:20.808Z,5.20
2023-05-02T04:54:48.765Z,4.50
2023-05-02T04:57:16.717Z,5.50
2023-05-02T04:59:48.778Z,4.83
2023-05-02T05:02:17.110Z,5.53
2023-05-02T05:04:46.198Z,6.10
2023-05-02T05:07:15.618Z,5.90
2023-05-02T05:09:48.040Z,5.83
2023-05-02T05:12:16.009Z,5.50
2023-05-02T05:14:44.614Z,4.87
2023-05-02T05:17:13.196Z,3.60
2023-05-02T05:19:41.601Z,3.13
2023-05-02T05:22:09.966Z,2.53
2023-05-02T05:24:39.133Z,2.40
2023-05-02T05:27:08.648Z,2.83
2023-05-02T05:29:37.069Z,2.27
2023-05-02T05:32:06.264Z,2.60
2023-05-02T05:34:35.308Z,1.80
2023-05-02T05:37:03.310Z,2.13
2023-05-02T05:39:31.491Z,2.00
2023-05-02T05:42:01.416Z,1.90
2023-05-02T05:44:32.184Z,2.40
2023-05-02T05:47:01.353Z,2.23
2023-05-02T05:49:29.888Z,2.03
2023-05-02T05:51:57.843Z,2.03
2023-05-02T05:54:25.989Z,2.10
2023-05-02T05:56:54.308Z,2.17
2023-05-02T05:59:22.247Z,1.93
2023-05-02T06:01:51.538Z,2.20
2023-05-02T06:04:22.607Z,2.40
2023-05-02T06:06:53.718Z,2.10
2023-05-02T06:09:21.831Z,2.00
2023-05-02T06:11:49.913Z,1.60
2023-05-02T06:14:17.861Z,2.40
2023-05-02T06:16:48.302Z,1.80
2023-05-02T06:19:17.733Z,2.60
2023-05-02T06:21:45.756Z,2.30
2023-05-02T06:24:13.729Z,2.20
2023-05-02T06:26:41.636Z,2.10
2023-05-02T06:29:09.538Z,1.63
2023-05-02T06:31:37.454Z,2.20
2023-05-02T06:34:05.346Z,1.97
2023-05-02T06:36:34.583Z,1.97
2023-05-02T06:39:02.492Z,2.10
2023-05-02T06:41:30.431Z,2.00
2023-05-02T06:43:58.283Z,2.00
2023-05-02T06:46:30.051Z,2.30
2023-05-02T06:48:58.038Z,2.13
2023-05-02T06:51:26.193Z,2.10
2023-05-02T06:53:55.415Z,1.80
2023-05-02T06:56:23.305Z,1.93
2023-05-02T06:58:51.257Z,2.23
2023-05-02T07:01:19.474Z,1.80
2023-05-02T07:03:47.766Z,2.10
2023-05-02T07:06:15.921Z,2.10
2023-05-02T07:08:43.854Z,1.90
2023-05-02T07:11:13.056Z,2.13
2023-05-02T07:13:41.002Z,2.00
2023-05-02T07:16:09.203Z,2.03
2023-05-02T07:18:37.393Z,2.20
2023-05-02T07:21:05.717Z,2.40
2023-05-02T07:23:33.630Z,2.07
2023-05-02T07:26:02.809Z,2.03
2023-05-02T07:28:33.432Z,2.43
2023-05-02T07:31:01.418Z,2.20
2023-05-02T07:33:29.344Z,2.20
2023-05-02T07:35:57.468Z,2.70
2023-05-02T07:38:25.373Z,2.47
2023-05-02T07:40:53.278Z,2.00
2023-05-02T07:43:21.128Z,2.40
2023-05-02T07:45:50.429Z,2.43
2023-05-02T07:48:18.427Z,2.30
2023-05-02T07:50:46.375Z,2.40
2023-05-02T07:53:14.335Z,2.40
2023-05-02T07:55:42.254Z,1.80
2023-05-02T07:58:10.155Z,2.33
2023-05-02T08:00:37.975Z,2.30
2023-05-02T08:03:07.636Z,2.13
2023-05-02T08:05:35.612Z,2.97
2023-05-02T08:08:04.015Z,2.50
2023-05-02T08:10:31.943Z,2.33
2023-05-02T08:12:59.858Z,2.27
2023-05-02T08:15:27.818Z,2.73
2023-05-02T08:17:55.806Z,2.00
2023-05-02T08:20:25.482Z,2.50
2023-05-02T08:22:53.359Z,1.90
2023-05-02T08:25:21.474Z,1.97
2023-05-02T08:27:49.364Z,2.70
2023-05-02T08:30:17.253Z,2.60
2023-05-02T08:32:45.363Z,2.20
2023-05-02T08:35:13.422Z,2.73
2023-05-02T08:37:43.485Z,2.50
2023-05-02T08:40:13.807Z,2.70
2023-05-02T08:42:44.847Z,2.90
2023-05-02T08:45:16.561Z,3.43
2023-05-02T08:47:45.366Z,3.23
2023-05-02T08:50:13.402Z,3.57
2023-05-02T08:52:44.269Z,3.33
2023-05-02T08:55:13.805Z,3.07
2023-05-02T08:57:44.381Z,3.23
2023-05-02T09:00:13.589Z,3.00
2023-05-02T09:02:58.039Z,2.87
2023-05-02T09:05:26.144Z,2.90
2023-05-02T09:07:56.155Z,3.07
2023-05-02T09:10:26.695Z,2.90
2023-05-02T09:12:54.569Z,2.70
2023-05-02T09:15:22.913Z,3.20
2023-05-02T09:17:51.033Z,2.53
2023-05-02T09:20:18.925Z,2.37
2023-05-02T09:22:51.183Z,2.60
2023-05-02T09:25:21.077Z,2.67
2023-05-02T09:27:54.273Z,2.40
2023-05-02T09:30:24.268Z,2.57
2023-05-02T09:32:55.267Z,2.30
2023-05-02T09:35:26.418Z,2.70
2023-05-02T09:37:55.199Z,1.97
2023-05-02T09:40:25.118Z,2.00
2023-05-02T09:42:53.709Z,2.10
2023-05-02T09:45:23.249Z,2.67
2023-05-02T09:47:51.876Z,2.33
2023-05-02T09:50:35.756Z,2.20
2023-05-02T09:53:05.219Z,2.53
2023-05-02T09:55:34.494Z,2.40
2023-05-02T09:58:02.543Z,2.90
2023-05-02T10:00:43.831Z,2.50
2023-05-02T10:03:16.501Z,2.33
2023-05-02T10:05:46.088Z,2.70
2023-05-02T10:08:14.935Z,2.47
2023-05-02T10:10:48.429Z,2.53
2023-05-02T10:13:20.255Z,2.63
2023-05-02T10:15:51.683Z,2.30
2023-05-02T10:18:25.352Z,2.67
2023-05-02T10:20:58.526Z,2.70
2023-05-02T10:23:28.077Z,2.47
2023-05-02T10:26:00.156Z,2.03
2023-05-02T10:28:29.158Z,2.33
2023-05-02T10:30:58.227Z,2.60
2023-05-02T10:33:26.673Z,3.13
2023-05-02T10:35:54.554Z,2.60
2023-05-02T10:38:24.921Z,2.20
2023-05-02T10:40:58.769Z,2.40
2023-05-02T10:43:29.650Z,2.43
2023-05-02T10:45:57.668Z,2.60
2023-05-02T10:48:26.844Z,3.30
2023-05-02T10:50:56.552Z,3.10
2023-05-02T10:53:36.444Z,3.03
2023-05-02T10:56:17.086Z,2.63
2023-05-02T10:58:46.131Z,2.40
2023-05-02T11:01:36.516Z,2.10
2023-05-02T11:04:06.160Z,2.70
2023-05-02T11:06:35.729Z,2.40
2023-05-02T11:09:33.026Z,2.90
2023-05-02T11:12:05.779Z,3.00
2023-05-02T11:14:49.994Z,2.90
2023-05-02T11:17:18.924Z,2.60
2023-05-02T11:20:19.881Z,2.60
2023-05-02T11:22:47.838Z,2.70
2023-05-02T11:25:31.435Z,2.70
2023-05-02T11:28:00.911Z,3.20
2023-05-02T11:30:48.594Z,3.40
2023-05-02T11:33:20.774Z,3.10
2023-05-02T11:35:49.810Z,3.23
2023-05-02T11:38:22.164Z,3.10
2023-05-02T11:40:58.397Z,3.60
2023-05-02T11:43:31.476Z,2.93
2023-05-02T11:46:01.522Z,3.10
2023-05-02T11:48:30.155Z,3.33
2023-05-02T11:51:02.103Z,3.07
2023-05-02T11:53:31.350Z,3.27
2023-05-02T11:56:01.004Z,3.20
2023-05-02T11:58:33.491Z,3.00
2023-05-02T12:01:12.969Z,3.93
2023-05-02T12:03:41.428Z,2.70
2023-05-02T12:06:12.273Z,3.03
2023-05-02T12:08:41.423Z,3.13
2023-05-02T12:11:09.495Z,3.23
2023-05-02T12:13:47.476Z,3.13
2023-05-02T12:16:15.885Z,2.67
2023-05-02T12:18:44.388Z,2.70
2023-05-02T12:21:12.410Z,2.30
2023-05-02T12:23:42.319Z,3.30
2023-05-02T12:26:21.185Z,2.83
2023-05-02T12:28:54.673Z,3.20
2023-05-02T12:31:23.813Z,2.73
2023-05-02T12:33:52.563Z,3.00
2023-05-02T12:36:20.826Z,3.00
2023-05-02T12:38:53.020Z,2.70
2023-05-02T12:41:34.826Z,3.27
2023-05-02T12:44:05.190Z,2.87
2023-05-02T12:46:33.402Z,2.93
2023-05-02T12:49:06.417Z,3.10
2023-05-02T12:51:34.668Z,3.00
2023-05-02T12:54:02.927Z,3.00
2023-05-02T12:56:33.032Z,3.17
2023-05-02T12:59:04.725Z,3.20
2023-05-02T13:01:34.918Z,3.00
2023-05-02T13:04:03.539Z,2.67
2023-05-02T13:06:31.657Z,2.60
2023-05-02T13:09:00.304Z,2.80
2023-05-02T13:11:28.748Z,2.83
2023-05-02T13:13:56.658Z,2.60
2023-05-02T13:16:25.885Z,2.77
2023-05-02T13:18:55.331Z,3.00
2023-05-02T13:21:23.333Z,2.80
2023-05-02T13:23:52.235Z,3.03
2023-05-02T13:26:20.126Z,2.73
2023-05-02T13:28:47.979Z,2.90
2023-05-02T13:31:15.962Z,2.77
2023-05-02T13:33:43.882Z,2.80
2023-05-02T13:36:13.183Z,2.70
2023-05-02T13:38:41.544Z,2.60
2023-05-02T13:41:09.470Z,2.70
2023-05-02T13:43:37.389Z,2.67
2023-05-02T13:46:05.383Z,2.97
2023-05-02T13:48:33.291Z,2.70
2023-05-02T13:51:01.259Z,2.43
2023-05-02T13:53:30.587Z,2.70
2023-05-02T13:55:58.466Z,2.70
2023-05-02T13:58:26.342Z,3.00
2023-05-02T14:00:54.198Z,2.60
2023-05-02T14:03:22.219Z,3.00
2023-05-02T14:05:50.189Z,2.93
2023-05-02T14:08:19.186Z,2.87
2023-05-02T14:10:48.436Z,2.97
2023-05-02T14:13:16.357Z,2.87
2023-05-02T14:15:44.284Z,2.87
2023-05-02T14:18:12.196Z,2.53
2023-05-02T14:20:40.036Z,2.83
2023-05-02T14:23:07.965Z,3.40
2023-05-02T14:25:36.524Z,2.80
2023-05-02T14:28:06.576Z,2.90
2023-05-02T14:30:34.682Z,2.87
2023-05-02T14:33:02.770Z,2.40
2023-05-02T14:35:30.805Z,2.57
2023-05-02T14:37:59.005Z,2.93
2023-05-02T14:40:26.885Z,2.50
2023-05-02T14:42:54.814Z,2.60
2023-05-02T14:45:24.044Z,2.63
2023-05-02T14:47:52.368Z,2.90
2023-05-02T14:50:20.368Z,2.73
2023-05-02T14:52:48.270Z,2.50
2023-05-02T14:55:16.228Z,3.00
2023-05-02T14:57:44.231Z,2.70
2023-05-02T15:00:13.029Z,2.70
2023-05-02T15:02:42.476Z,2.70
2023-05-02T15:05:12.540Z,2.90
2023-05-02T15:07:40.721Z,2.87
2023-05-02T15:10:10.337Z,2.60
2023-05-02T15:12:38.270Z,3.33
2023-05-02T15:15:09.091Z,3.20
2023-05-02T15:17:36.983Z,3.10
2023-05-02T15:20:07.425Z,2.73
2023-05-02T15:22:35.318Z,3.00
2023-05-02T15:25:05.422Z,3.10
2023-05-02T15:27:33.556Z,2.80
2023-05-02T15:30:02.758Z,2.80
2023-05-02T15:32:31.298Z,3.13
2023-05-02T15:34:59.206Z,3.20
2023-05-02T15:37:28.431Z,3.30
2023-05-02T15:39:56.370Z,3.27
2023-05-02T15:42:24.235Z,3.53
2023-05-02T15:44:53.906Z,3.17
2023-05-02T15:47:23.198Z,3.20
2023-05-02T15:49:53.694Z,3.87
2023-05-02T15:52:22.292Z,3.20
2023-05-02T15:54:51.762Z,3.50
2023-05-02T15:57:21.195Z,3.70
2023-05-02T15:59:49.160Z,3.07
2023-05-02T16:02:17.070Z,3.70
2023-05-02T16:04:45.094Z,3.33
2023-05-02T16:07:13.030Z,3.30
2023-05-02T16:09:42.105Z,3.20
2023-05-02T16:12:11.852Z,3.47
2023-05-02T16:14:39.688Z,3.20
2023-05-02T16:17:07.558Z,3.80
2023-05-02T16:19:35.575Z,3.70
2023-05-02T16:22:03.450Z,3.30
2023-05-02T16:24:31.345Z,3.30
2023-05-02T16:26:59.181Z,3.60
2023-05-02T16:29:28.377Z,3.70
2023-05-02T16:31:56.468Z,3.23
2023-05-02T16:34:24.482Z,3.37
2023-05-02T16:36:52.997Z,3.50
2023-05-02T16:39:20.884Z,3.93
2023-05-02T16:41:49.207Z,3.30
2023-05-02T16:44:17.184Z,3.60
2023-05-02T16:46:46.660Z,3.70
2023-05-02T16:49:14.624Z,3.70
2023-05-02T16:51:42.524Z,3.73
2023-05-02T16:54:10.655Z,3.80
2023-05-02T16:56:39.690Z,4.07
2023-05-02T16:59:08.714Z,4.00
2023-05-02T17:01:36.713Z,3.97
2023-05-02T17:04:05.976Z,3.57
2023-05-02T17:06:34.062Z,3.70
2023-05-02T17:09:02.071Z,3.50
2023-05-02T17:11:29.965Z,4.00
2023-05-02T17:13:57.781Z,3.60
2023-05-02T17:16:25.697Z,3.60
2023-05-02T17:18:53.977Z,3.80
2023-05-02T17:21:23.315Z,3.63
2023-05-02T17:23:51.236Z,3.57
2023-05-02T17:26:19.292Z,3.43
2023-05-02T17:28:47.202Z,3.90
2023-05-02T17:31:15.459Z,3.50
2023-05-02T17:33:43.500Z,3.70
2023-05-02T17:36:11.649Z,3.47
2023-05-02T17:38:41.866Z,3.53
2023-05-02T17:41:09.734Z,3.93
2023-05-02T17:43:38.062Z,3.70
2023-05-02T17:46:09.282Z,3.70
2023-05-02T17:48:37.447Z,3.50
2023-05-02T17:51:06.958Z,4.13
2023-05-02T17:53:36.592Z,3.70
2023-05-02T17:56:06.667Z,4.03
2023-05-02T17:58:36.368Z,3.43
2023-05-02T18:01:11.330Z,3.50
2023-05-02T18:03:39.802Z,3.50
2023-05-02T18:06:08.492Z,3.17
2023-05-02T18:08:36.541Z,3.10
2023-05-02T18:11:05.843Z,3.73
2023-05-02T18:13:35.432Z,3.17
2023-05-02T18:16:05.299Z,3.50
2023-05-02T18:18:36.124Z,3.40
2023-05-02T18:21:04.216Z,3.50
2023-05-02T18:23:32.116Z,3.20
2023-05-02T18:26:00.142Z,3.77
2023-05-02T18:28:29.454Z,3.40
2023-05-02T18:30:57.371Z,3.47
2023-05-02T18:33:25.241Z,3.20
2023-05-02T18:35:53.117Z,3.00
2023-05-02T18:38:21.048Z,3.53
2023-05-02T18:40:49.023Z,3.20
2023-05-02T18:43:16.876Z,3.33
2023-05-02T18:45:46.194Z,3.37
2023-05-02T18:48:14.134Z,3.00
2023-05-02T18:50:42.050Z,3.00
2023-05-02T18:53:29.108Z,3.20
2023-05-02T18:55:57.673Z,3.37
2023-05-02T18:58:25.878Z,3.30
2023-05-02T19:00:55.117Z,3.20
2023-05-02T19:03:23.697Z,3.00
2023-05-02T19:05:51.835Z,2.93
2023-05-02T19:08:19.703Z,2.97
2023-05-02T19:10:47.692Z,2.80
2023-05-02T19:13:17.437Z,2.80
2023-05-02T19:15:45.373Z,3.10
2023-05-02T19:18:15.145Z,2.70
2023-05-02T19:20:43.032Z,3.00
2023-05-02T19:23:19.801Z,2.80
2023-05-02T19:25:49.023Z,2.80
2023-05-02T19:28:17.182Z,3.30
2023-05-02T19:30:45.359Z,2.80
2023-05-02T19:33:14.599Z,3.17
2023-05-02T19:35:42.507Z,2.70
2023-05-02T19:38:10.416Z,2.80
2023-05-02T19:40:38.327Z,2.50
2023-05-02T19:43:06.267Z,2.97
2023-05-02T19:45:34.169Z,2.67
2023-05-02T19:48:02.175Z,3.20
2023-05-02T19:50:33.357Z,3.50
2023-05-02T19:53:01.624Z,3.40
2023-05-02T19:55:29.517Z,3.40
2023-05-02T19:57:57.398Z,3.37
2023-05-02T20:00:25.308Z,3.20
2023-05-02T20:02:53.227Z,3.70
2023-05-02T20:05:21.440Z,3.40
2023-05-02T20:07:51.104Z,3.80
2023-05-02T20:10:19.268Z,3.20
2023-05-02T20:12:47.990Z,3.23
2023-05-02T20:15:17.070Z,3.90
2023-05-02T20:17:45.563Z,3.43
2023-05-02T20:20:14.008Z,3.70
2023-05-02T20:22:41.974Z,3.07
2023-05-02T20:25:12.379Z,3.40
2023-05-02T20:27:40.766Z,3.80
2023-05-02T20:30:09.805Z,5.00
2023-05-02T20:32:38.042Z,4.40
2023-05-02T20:35:07.094Z,5.00
2023-05-02T20:37:35.208Z,4.77
2023-05-02T20:40:04.960Z,4.97
2023-05-02T20:42:34.564Z,3.60
2023-05-02T20:45:04.891Z,3.80
2023-05-02T20:47:33.165Z,3.47
2023-05-02T20:50:01.311Z,2.87
2023-05-02T20:52:29.371Z,3.47
2023-05-02T20:54:57.474Z,3.03
2023-05-02T20:57:25.367Z,3.67
2023-05-02T20:59:54.588Z,3.10
2023-05-02T21:02:22.397Z,3.67
2023-05-02T21:04:51.197Z,3.20
2023-05-02T21:07:19.303Z,3.30
2023-05-02T21:09:47.239Z,3.13
2023-05-02T21:12:17.206Z,2.87
2023-05-02T21:14:45.079Z,3.10
2023-05-02T21:17:14.364Z,3.10
2023-05-02T21:19:42.705Z,3.00
2023-05-02T21:22:10.608Z,3.43
2023-05-02T21:24:38.417Z,3.37
2023-05-02T21:27:06.448Z,3.13
2023-05-02T21:29:34.298Z,3.27
2023-05-02T21:32:02.581Z,3.10
2023-05-02T21:34:31.872Z,3.47
2023-05-02T21:36:59.975Z,3.33
2023-05-02T21:39:27.889Z,3.27
2023-05-02T21:41:56.284Z,3.47
2023-05-02T21:44:24.218Z,3.20
2023-05-02T21:46:52.686Z,3.40
2023-05-02T21:49:20.542Z,3.23
2023-05-02T21:51:49.787Z,3.47
2023-05-02T21:54:17.689Z,3.97
2023-05-02T21:56:45.625Z,3.13
2023-05-02T21:59:13.511Z,3.30
2023-05-02T22:01:41.393Z,3.60
2023-05-02T22:04:09.341Z,3.40
2023-05-02T22:06:37.285Z,3.27
2023-05-02T22:09:08.216Z,3.17
2023-05-02T22:11:36.169Z,4.03
2023-05-02T22:14:04.093Z,3.50
2023-05-02T22:16:31.985Z,3.20
2023-05-02T22:19:01.129Z,3.53
2023-05-02T22:21:29.105Z,3.63
2023-05-02T22:23:57.266Z,4.00
2023-05-02T22:26:26.603Z,3.73
2023-05-02T22:28:54.585Z,3.57
2023-05-02T22:31:22.434Z,3.50
2023-05-02T22:33:50.584Z,4.30
2023-05-02T22:36:18.874Z,3.80
2023-05-02T22:38:46.755Z,3.63
2023-05-02T22:41:15.034Z,3.40
2023-05-02T22:43:44.239Z,3.50
2023-05-02T22:46:12.119Z,3.70
2023-05-02T22:48:39.995Z,4.07
2023-05-02T22:51:08.135Z,4.10
2023-05-02T22:53:36.230Z,3.93
2023-05-02T22:56:04.483Z,4.00
2023-05-02T22:58:32.367Z,4.10
2023-05-02T23:01:02.405Z,4.00
2023-05-02T23:03:30.420Z,3.90
2023-05-02T23:05:58.323Z,3.90
2023-05-02T23:08:26.203Z,3.73
2023-05-02T23:10:54.097Z,3.63
2023-05-02T23:13:21.939Z,4.10
2023-05-02T23:15:54.282Z,3.73
2023-05-02T23:18:23.889Z,3.47
2023-05-02T23:20:52.322Z,3.73
2023-05-02T23:23:20.246Z,3.70
2023-05-02T23:25:48.419Z,3.60
2023-05-02T23:28:16.254Z,3.57
2023-05-02T23:30:44.194Z,4.23
2023-05-02T23:33:12.259Z,3.90
2023-05-02T23:35:41.799Z,3.87
2023-05-02T23:38:09.817Z,3.67
2023-05-02T23:40:37.669Z,3.50
2023-05-02T23:43:07.396Z,4.30
2023-05-02T23:45:35.373Z,4.00
2023-05-02T23:48:03.353Z,3.40
2023-05-02T23:50:31.956Z,3.93
2023-05-02T23:53:01.259Z,4.13
2023-05-02T23:55:29.232Z,4.07
2023-05-02T23:57:57.110Z,4.33
